Home > Products > Valid Products > TAF

000
FTUS46 KPQR 301500 AAA
TAFTTD
TAF AMD
KTTD 301500Z 3015/0112 VRB02KT P6SM OVC030
     FM302000 28004KT P6SM SCT045
     FM010000 33009KT P6SM FEW045
     FM010300 28004KT P6SM SKC=



000
FTUS46 KPQR 301459 AAA
TAFAST
TAF AMD
KAST 301459Z 3015/0112 36006KT 5SM BR BKN028 BKN035
     FM302000 32012KT P6SM SCT035
     FM010300 34008KT P6SM SCT030
     FM010800 03004KT P6SM SKC=



000
FTUS46 KPQR 301459 AAA
TAFEUG
TAF AMD
KEUG 301459Z 3015/0112 33004KT P6SM BKN035
      TEMPO 3015/3018 36003KT P6SM BKN030
     FM301900 36014KT P6SM SCT040
     FM010500 01008KT P6SM SKC=



000
FTUS46 KPQR 301459 AAA
TAFAST
TAF AMD
KAST 301459Z 3015/0112 36006KT 5SM BR BKN028 BKN035
     FM302000 32012KT P6SM SCT035
     FM010300 34008KT P6SM SCT030
     FM010800 03004KT P6SM SKC=



000
FTUS46 KPQR 301458 AAA
TAFSLE
TAF AMD
KSLE 301458Z 3015/0112 34005KT P6SM SCT020
      TEMPO 3015/3017 BKN020
     FM302000 36010KT P6SM SCT045
     FM010800 02006KT P6SM SKC=



000
FTUS46 KPQR 301457 AAA
TAFHIO
TAF AMD
KHIO 301457Z 3015/0112 VRB02KT P6SM SCT025
      TEMPO 3015/3017 BKN025
     FM010000 34011KT P6SM FEW045
     FM010600 36004KT P6SM SKC=



000
FTUS46 KPQR 301440 AAA
TAFPDX
TAF AMD
KPDX 301440Z 3015/0112 VRB03KT P6SM BKN028 OVC050
     FM301900 32005KT P6SM SCT030
     FM302200 32011KT P6SM SCT045
     FM010400 32006KT P6SM SKC=



000
FTUS46 KPQR 301140
TAFAST
TAF
KAST 301140Z 3012/0112 34008KT P6SM OVC035
     FM301400 36006KT P6SM SCT028 BKN035
     FM302000 32012KT P6SM SCT035
     FM010300 34008KT P6SM SCT030
     FM010800 03004KT P6SM SKC=



000
FTUS46 KPQR 301140
TAFSLE
TAF
KSLE 301140Z 3012/0112 34005KT P6SM SCT020
      TEMPO 3012/3016 BKN020
     FM302000 36010KT P6SM SCT045
     FM010800 02006KT P6SM SKC=



000
FTUS46 KPQR 301140
TAFTTD
TAF
KTTD 301140Z 3012/0112 VRB02KT P6SM BKN030
     FM301500 VRB02KT P6SM SCT030 SCT060
     FM302000 28004KT P6SM SCT045
     FM010000 33009KT P6SM FEW045
     FM010300 28004KT P6SM SKC=



000
FTUS46 KPQR 301140
TAFONP
TAF
KONP 301140Z 3012/0112 03005KT P6SM SCT025 BKN035
     FM302000 35015G25KT P6SM SCT035
     FM010300 01005KT P6SM SKC=



000
FTUS46 KPQR 301140
TAFEUG
TAF
KEUG 301140Z 3012/0112 33004KT P6SM BKN035
     FM301400 36003KT P6SM BKN030
     FM301900 36014KT P6SM SCT040
     FM010500 01008KT P6SM SKC=



000
FTUS46 KPQR 301140
TAFHIO
TAF
KHIO 301140Z 3012/0112 00000KT P6SM FEW060
     FM301400 VRB02KT P6SM SCT025
      TEMPO 3014/3016 BKN025
     FM010000 34011KT P6SM FEW045
     FM010600 36004KT P6SM SKC=



000
FTUS46 KPQR 301140
TAFPDX
TAF
KPDX 301140Z 3012/0112 VRB03KT P6SM BKN060
     FM301400 VRB03KT P6SM SCT028 OVC050
     FM302200 32011KT P6SM SCT045
     FM010400 32006KT P6SM SKC=



000
FTUS46 KPQR 301030 AAA
TAFEUG
TAF AMD
KEUG 301030Z 3011/0106 34004KT P6SM FEW050
     FM301300 36003KT P6SM BKN028
     FM301900 36012KT P6SM SCT040=



000
FTUS46 KPQR 301030 AAA
TAFEUG
TAF AMD
KEUG 301030Z 3011/0106 34004KT P6SM FEW050
     FM301300 36003KT P6SM BKN028
     FM301900 36012KT P6SM SCT040=



000
FTUS46 KPQR 301025 AAA
TAFSLE
TAF AMD
KSLE 301025Z 3010/0106 32005KT P6SM BKN050
     FM301900 36008KT P6SM SCT040=



000
FTUS46 KPQR 300909 AAA
TAFPDX
TAF AMD
KPDX 300909Z 3009/0106 29005KT P6SM BKN060
     FM301300 29003KT P6SM SCT028 OVC050
     FM302000 32008KT P6SM SCT045=



000
FTUS46 KPQR 300844 AAA
TAFAST
TAF AMD
KAST 300844Z 3009/0106 34008KT P6SM OVC035
     FM301400 36006KT P6SM SCT028 BKN040
     FM302000 32012KT P6SM SCT030
     FM010300 33006KT P6SM SCT030=



000
FTUS46 KPQR 300842 AAA
TAFONP
TAF AMD
KONP 300842Z 3009/0106 05005KT P6SM SCT025 BKN035
     FM302000 35015G25KT P6SM SCT020
     FM010300 01005KT P6SM FEW020=



000
FTUS46 KPQR 300524
TAFPDX
TAF
KPDX 300524Z 3006/0106 29005KT P6SM BKN060
     FM301100 29003KT P6SM SCT028 OVC050
     FM302000 32008KT P6SM SCT045=



000
FTUS46 KPQR 300524
TAFAST
TAF
KAST 300524Z 3006/0106 32012G20KT P6SM OVC030
     FM300800 32008KT P6SM OVC030
     FM302000 32012KT P6SM SCT030
     FM010300 33006KT P6SM SCT030=



000
FTUS46 KPQR 300524
TAFAST
TAF
KAST 300524Z 3006/0106 32012G20KT P6SM OVC030
     FM300800 32008KT P6SM OVC030
     FM302000 32012KT P6SM SCT030
     FM010300 33006KT P6SM SCT030=



000
FTUS46 KPQR 300524
TAFHIO
TAF
KHIO 300524Z 3006/0106 30004KT P6SM BKN060
     FM301100 VRB02KT P6SM BKN030 BKN060
     FM302000 36006KT P6SM SCT045=



000
FTUS46 KPQR 300524
TAFPDX
TAF
KPDX 300524Z 3006/0106 29005KT P6SM BKN060
     FM301100 29003KT P6SM SCT028 OVC050
     FM302000 32008KT P6SM SCT045=



000
FTUS46 KPQR 300524
TAFEUG
TAF
KEUG 300524Z 3006/0106 34004KT P6SM BKN050
     FM301200 36003KT P6SM OVC020
     FM301900 36012KT P6SM SCT040=



000
FTUS46 KPQR 300524
TAFONP
TAF
KONP 300524Z 3006/0106 35010G20KT P6SM BKN025 BKN035
     FM300800 35010G20KT P6SM BKN025 BKN035
     FM302000 35015G25KT P6SM SCT020
     FM010300 01005KT P6SM FEW020=



000
FTUS46 KPQR 300524
TAFSLE
TAF
KSLE 300524Z 3006/0106 30005KT P6SM SCT050
     FM301000 36004KT P6SM BKN020
     FM301900 36008KT P6SM SCT040=



000
FTUS46 KPQR 300524
TAFTTD
TAF
KTTD 300524Z 3006/0106 VRB02KT P6SM OVC060
     FM301200 VRB02KT P6SM BKN025 OVC050
     FM302000 28004KT P6SM SCT050=



000
FTUS46 KPQR 300524
TAFSLE
TAF
KSLE 300524Z 3006/0106 30005KT P6SM SCT050
     FM301000 36004KT P6SM BKN020
     FM301900 36008KT P6SM SCT040=



000
FTUS46 KPQR 300524
TAFONP
TAF
KONP 300524Z 3006/0106 35010G20KT P6SM BKN025 BKN035
     FM300800 35010G20KT P6SM BKN025 BKN035
     FM302000 35015G25KT P6SM SCT020
     FM010300 01005KT P6SM FEW020=



000
FTUS46 KPQR 300524
TAFEUG
TAF
KEUG 300524Z 3006/0106 34004KT P6SM BKN050
     FM301200 36003KT P6SM OVC020
     FM301900 36012KT P6SM SCT040=



000
FTUS46 KPQR 300524
TAFTTD
TAF
KTTD 300524Z 3006/0106 VRB02KT P6SM OVC060
     FM301200 VRB02KT P6SM BKN025 OVC050
     FM302000 28004KT P6SM SCT050=



000
FTUS46 KPQR 300524
TAFHIO
TAF
KHIO 300524Z 3006/0106 30004KT P6SM BKN060
     FM301100 VRB02KT P6SM BKN030 BKN060
     FM302000 36006KT P6SM SCT045=



000
FTUS46 KPQR 300310 AAA
TAFPDX
TAF AMD
KPDX 300310Z 3003/3024 30005KT P6SM BKN060
     FM300900 30004KT P6SM OVC020
     FM302000 32008KT P6SM SCT050=



000
FTUS46 KPQR 292337
TAFPDX
TAF
KPDX 292337Z 3000/3024 30007KT P6SM SCT030 BKN045
      TEMPO 3000/3003 -SHRA
     FM300800 30004KT P6SM OVC020
     FM302000 32008KT P6SM SCT050=



000
FTUS46 KPQR 292337
TAFSLE
TAF
KSLE 292337Z 3000/3024 29007KT P6SM SCT025 BKN045
      TEMPO 3000/3003 -SHRA
     FM300700 33003KT P6SM SCT035
     FM301000 36004KT P6SM BKN020
     FM301900 36008KT P6SM SCT040=



000
FTUS46 KPQR 292337
TAFHIO
TAF
KHIO 292337Z 3000/3024 29008KT P6SM SCT030 BKN045
      TEMPO 3000/3003 -SHRA
     FM300600 VRB02KT P6SM SCT040
     FM301100 VRB02KT P6SM OVC020
     FM302000 36006KT P6SM SCT050=



000
FTUS46 KPQR 292337
TAFEUG
TAF
KEUG 292337Z 3000/3024 32007KT P6SM SCT025 BKN040
      TEMPO 3000/3003 -SHRA
     FM300700 34003KT P6SM BKN035
     FM301200 36003KT P6SM OVC020
     FM301900 36012KT P6SM SCT040=



000
FTUS46 KPQR 292337
TAFAST
TAF
KAST 292337Z 3000/3024 32012KT P6SM SCT025 BKN050
      TEMPO 3000/3002 BKN025
     FM300200 32012KT P6SM SCT030
     FM300800 30006KT P6SM BKN015
     FM302000 32012KT P6SM SCT030=



000
FTUS46 KPQR 292337
TAFONP
TAF
KONP 292337Z 3000/3024 32008KT P6SM BKN010
      TEMPO 3000/3003 SCT010 BKN030
     FM300300 35006KT P6SM BKN015
     FM300700 01004KT P6SM OVC015
     FM301900 35015G25KT P6SM SCT020=



000
FTUS46 KPQR 292337
TAFTTD
TAF
KTTD 292337Z 3000/3024 28004KT P6SM SCT028 BKN045
      TEMPO 3000/3003 -SHRA
     FM300800 VRB02KT P6SM OVC020
     FM302000 29004KT P6SM SCT050=



000
FTUS46 KPQR 292202 AAB
TAFONP
TAF AMD
KONP 292202Z 2922/3018 28007KT 5SM -SHRA BR BKN008 OVC020
     FM300000 32013G20KT P6SM VCSH SCT025 BKN045
     FM300400 32012KT P6SM SCT040
     FM300900 33005KT P6SM BKN015=



000
FTUS46 KPQR 292038 AAA
TAFPDX
TAF AMD
KPDX 292038Z 2921/3018 27004KT P6SM -SHRA BKN028 BKN035 OVC045
     FM300400 30008KT P6SM SCT035 BKN045
     FM301000 32005KT P6SM BKN020=



000
FTUS46 KPQR 291915 AAA
TAFONP
TAF AMD
KONP 291915Z 2919/3018 30011KT P6SM -SHRA BKN025 OVC045
      TEMPO 2919/2922 2SM -RA BR BKN008
     FM292300 32013G20KT P6SM VCSH SCT025 BKN045
     FM300400 32012KT P6SM SCT040
     FM300900 33005KT P6SM BKN015=



000
FTUS46 KPQR 291915 AAA
TAFONP
TAF AMD
KONP 291915Z 2919/3018 30011KT P6SM -SHRA BKN025 OVC045
      TEMPO 2919/2922 2SM -RA BR BKN008
     FM292300 32013G20KT P6SM VCSH SCT025 BKN045
     FM300400 32012KT P6SM SCT040
     FM300900 33005KT P6SM BKN015=



000
FTUS46 KPQR 291743
TAFONP
TAF
KONP 291743Z 2918/3018 30011KT P6SM -SHRA SCT025 OVC045
      TEMPO 2918/2922 BKN025
     FM292300 32013G20KT P6SM VCSH SCT025 BKN045
     FM300400 32012KT P6SM SCT040
     FM300900 33005KT P6SM BKN015=



000
FTUS46 KPQR 291743
TAFEUG
TAF
KEUG 291743Z 2918/3018 24006KT P6SM -SHRA BKN035 OVC050
     FM292300 33010KT P6SM BKN035 BKN050
      TEMPO 2923/3003 -SHRA
     FM300400 34006KT P6SM SCT035 BKN045
     FM301300 35008KT 3SM -DZ BR BKN030=



000
FTUS46 KPQR 291743
TAFTTD
TAF
KTTD 291743Z 2918/3018 27004KT P6SM -SHRA SCT025 BKN035 OVC045
     FM292300 29008KT P6SM BKN035 BKN045
      TEMPO 2923/3003 -SHRA
     FM300400 30007KT P6SM SCT035 BKN045
     FM301000 VRB02KT P6SM BKN020=



000
FTUS46 KPQR 291743
TAFHIO
TAF
KHIO 291743Z 2918/3018 29004KT P6SM -SHRA SCT025 BKN035 OVC045
     FM292300 30010KT P6SM VCSH BKN035 BKN045
      TEMPO 2923/3003 -SHRA
     FM300400 30007KT P6SM SCT035 BKN045
     FM301000 31004KT P6SM SCT020 BKN040=



000
FTUS46 KPQR 291743
TAFPDX
TAF
KPDX 291743Z 2918/3018 27004KT P6SM -SHRA SCT025 BKN035 OVC045
     FM292300 30012KT P6SM BKN035 BKN045
      TEMPO 2923/3003 -SHRA
     FM300400 30008KT P6SM SCT035 BKN045
     FM301000 32005KT P6SM BKN020=



000
FTUS46 KPQR 291743
TAFSLE
TAF
KSLE 291743Z 2918/3018 24005KT P6SM -SHRA SCT025 BKN035 OVC050
     FM292300 32012KT P6SM BKN035 BKN050
      TEMPO 2923/3003 -SHRA
     FM300400 30006KT P6SM SCT035 BKN045
     FM301000 33004KT P6SM BKN030=



000
FTUS46 KPQR 291743
TAFAST
TAF
KAST 291743Z 2918/3018 29011KT P6SM -SHRA SCT025 OVC045
      TEMPO 2918/2922 BKN025
     FM292200 32016G22KT P6SM VCSH SCT025 BKN045
     FM300200 32012KT P6SM SCT040
     FM300800 29006KT P6SM BKN015=



000
FTUS46 KPQR 291709 AAB
TAFPDX
TAF AMD
KPDX 291709Z 2917/3012 27004KT P6SM -SHRA SCT025 BKN035 OVC045
      TEMPO 2917/2918 -RA SCT015 BKN025 OVC060
     FM292300 30012KT P6SM BKN035 BKN045
      TEMPO 2923/3003 -SHRA
     FM300400 30008KT P6SM SCT035 BKN045
     FM301000 32005KT P6SM BKN020=



000
FTUS46 KPQR 291709 AAB
TAFPDX
TAF AMD
KPDX 291709Z 2917/3012 27004KT P6SM -SHRA SCT025 BKN035 OVC045
      TEMPO 2917/2918 -RA SCT015 BKN025 OVC060
     FM292300 30012KT P6SM BKN035 BKN045
      TEMPO 2923/3003 -SHRA
     FM300400 30008KT P6SM SCT035 BKN045
     FM301000 32005KT P6SM BKN020=



000
FTUS46 KPQR 291508 AAA
TAFPDX
TAF AMD
KPDX 291508Z 2915/3012 27004KT P6SM -SHRA SCT025 BKN035 OVC045
      TEMPO 2915/2917 SCT015 BKN025 OVC060
     FM292300 30012KT P6SM BKN035 BKN045
      TEMPO 2923/3003 -SHRA
     FM300400 30008KT P6SM SCT035 BKN045
     FM301000 32005KT P6SM BKN020=



000
FTUS46 KPQR 291135
TAFAST
TAF
KAST 291135Z 2912/3012 25005KT P6SM -SHRA SCT015 BKN025 OVC045
      TEMPO 2912/2916 3SM -SHRA BKN015 OVC025
     FM291700 29011KT P6SM -SHRA BKN025 OVC045
     FM292200 32013KT P6SM SCT025 BKN045
     FM300200 32012KT P6SM SCT040
     FM300800 29006KT P6SM BKN015=



000
FTUS46 KPQR 291135
TAFONP
TAF
KONP 291135Z 2912/3012 29005KT P6SM -SHRA SCT015 BKN022 OVC045
      TEMPO 2913/2917 3SM -SHRA BKN015 OVC025
     FM291800 30011KT P6SM -SHRA BKN025 OVC045
     FM292100 32013KT P6SM VCSH SCT025 BKN045
     FM300400 32012KT P6SM SCT040
     FM300900 33005KT P6SM BKN015=



000
FTUS46 KPQR 291135
TAFEUG
TAF
KEUG 291135Z 2912/3012 22004KT P6SM VCSH BKN035 OVC060
     FM291500 24006KT P6SM -SHRA BKN035 OVC050
     FM292300 33010KT P6SM BKN035 BKN050
      TEMPO 2923/3003 -SHRA
     FM300400 34006KT P6SM SCT035 BKN045=



000
FTUS46 KPQR 291135
TAFSLE
TAF
KSLE 291135Z 2912/3012 28004KT P6SM VCSH SCT025 BKN035 OVC050
     FM291500 24005KT P6SM -SHRA SCT025 BKN035 OVC050
     FM292300 32012KT P6SM BKN035 BKN050
      TEMPO 2923/3003 -SHRA
     FM300400 30006KT P6SM SCT035 BKN045=



000
FTUS46 KPQR 291135
TAFPDX
TAF
KPDX 291135Z 2912/3012 27004KT P6SM -SHRA SCT025 BKN035 OVC045
     FM292300 30012KT P6SM BKN035 BKN045
      TEMPO 2923/3003 -SHRA
     FM300400 30008KT P6SM SCT035 BKN045
     FM301000 32005KT P6SM BKN020=



000
FTUS46 KPQR 291135
TAFEUG
TAF
KEUG 291135Z 2912/3012 22004KT P6SM VCSH BKN035 OVC060
     FM291500 24006KT P6SM -SHRA BKN035 OVC050
     FM292300 33010KT P6SM BKN035 BKN050
      TEMPO 2923/3003 -SHRA
     FM300400 34006KT P6SM SCT035 BKN045=



000
FTUS46 KPQR 291135
TAFHIO
TAF
KHIO 291135Z 2912/3012 29004KT P6SM -SHRA SCT025 BKN035 OVC045
     FM292300 30010KT P6SM VCSH BKN035 BKN045
     FM300400 30007KT P6SM SCT035 BKN045
     FM301000 31004KT P6SM SCT020 BKN040=



000
FTUS46 KPQR 291135
TAFHIO
TAF
KHIO 291135Z 2912/3012 29004KT P6SM -SHRA SCT025 BKN035 OVC045
     FM292300 30010KT P6SM VCSH BKN035 BKN045
     FM300400 30007KT P6SM SCT035 BKN045
     FM301000 31004KT P6SM SCT020 BKN040=



000
FTUS46 KPQR 291135
TAFTTD
TAF
KTTD 291135Z 2912/3012 27004KT P6SM -SHRA SCT025 BKN035 OVC045
     FM292300 29008KT P6SM BKN035 BKN045
      TEMPO 2923/3003 -SHRA
     FM300400 30007KT P6SM SCT035 BKN045
     FM301000 VRB02KT P6SM BKN020=



000
FTUS46 KPQR 291135
TAFTTD
TAF
KTTD 291135Z 2912/3012 27004KT P6SM -SHRA SCT025 BKN035 OVC045
     FM292300 29008KT P6SM BKN035 BKN045
      TEMPO 2923/3003 -SHRA
     FM300400 30007KT P6SM SCT035 BKN045
     FM301000 VRB02KT P6SM BKN020=



000
FTUS46 KPQR 291135
TAFPDX
TAF
KPDX 291135Z 2912/3012 27004KT P6SM -SHRA SCT025 BKN035 OVC045
     FM292300 30012KT P6SM BKN035 BKN045
      TEMPO 2923/3003 -SHRA
     FM300400 30008KT P6SM SCT035 BKN045
     FM301000 32005KT P6SM BKN020=



000
FTUS46 KPQR 291135
TAFAST
TAF
KAST 291135Z 2912/3012 25005KT P6SM -SHRA SCT015 BKN025 OVC045
      TEMPO 2912/2916 3SM -SHRA BKN015 OVC025
     FM291700 29011KT P6SM -SHRA BKN025 OVC045
     FM292200 32013KT P6SM SCT025 BKN045
     FM300200 32012KT P6SM SCT040
     FM300800 29006KT P6SM BKN015=



000
FTUS46 KPQR 291135
TAFONP
TAF
KONP 291135Z 2912/3012 29005KT P6SM -SHRA SCT015 BKN022 OVC045
      TEMPO 2913/2917 3SM -SHRA BKN015 OVC025
     FM291800 30011KT P6SM -SHRA BKN025 OVC045
     FM292100 32013KT P6SM VCSH SCT025 BKN045
     FM300400 32012KT P6SM SCT040
     FM300900 33005KT P6SM BKN015=



000
FTUS46 KPQR 291135
TAFSLE
TAF
KSLE 291135Z 2912/3012 28004KT P6SM VCSH SCT025 BKN035 OVC050
     FM291500 24005KT P6SM -SHRA SCT025 BKN035 OVC050
     FM292300 32012KT P6SM BKN035 BKN050
      TEMPO 2923/3003 -SHRA
     FM300400 30006KT P6SM SCT035 BKN045=



000
FTUS46 KPQR 290911 AAA
TAFPDX
TAF AMD
KPDX 290911Z 2909/3006 32004KT P6SM SCT035 OVC050
     FM291600 22006KT P6SM -RA BKN035 OVC050
     FM292200 30011KT P6SM -SHRA BKN035 OVC050
     FM300200 32011KT P6SM VCSH SCT035 BKN050=



000
FTUS46 KPQR 290520
TAFAST
TAF
KAST 290520Z 2906/3006 29005KT P6SM OVC040
     FM291000 24006KT P6SM -RA BKN020 OVC060
     FM291300 23006KT 3SM -RA BR SCT008 OVC018
     FM291700 29013KT P6SM -SHRA OVC025
     FM300000 31013KT P6SM BKN035=



000
FTUS46 KPQR 290520
TAFHIO
TAF
KHIO 290520Z 2906/3006 VRB03KT P6SM OVC040
     FM291500 21004KT P6SM -RA OVC035
     FM292000 29007KT P6SM -SHRA OVC040
     FM300200 31008KT P6SM BKN040=



000
FTUS46 KPQR 290520
TAFTTD
TAF
KTTD 290520Z 2906/3006 24003KT P6SM OVC040
     FM291500 23005KT P6SM -RA OVC035
     FM292000 28006KT P6SM -SHRA OVC040
     FM300200 28005KT P6SM BKN040=



000
FTUS46 KPQR 290520
TAFEUG
TAF
KEUG 290520Z 2906/3006 22004KT P6SM BKN035
     FM291700 20005KT P6SM -RA OVC035
     FM292200 29012KT P6SM -SHRA OVC040
     FM300200 31009KT P6SM BKN040=



000
FTUS46 KPQR 290520
TAFPDX
TAF
KPDX 290520Z 2906/3006 32006KT P6SM OVC040
     FM291200 23004KT P6SM OVC040
     FM291500 19005KT P6SM -RA OVC035
     FM292000 29012KT P6SM -SHRA OVC040
     FM300200 31008KT P6SM BKN040=



000
FTUS46 KPQR 290520
TAFONP
TAF
KONP 290520Z 2906/3006 30005KT P6SM BKN040
     FM291000 VRB03KT P6SM BKN020 OVC050
     FM291500 20006KT P6SM -RA SCT008 OVC018
     FM291900 31013KT P6SM -SHRA BKN025
     FM300100 35010KT P6SM BKN030=



000
FTUS46 KPQR 290520
TAFSLE
TAF
KSLE 290520Z 2906/3006 30005KT P6SM BKN040
     FM291000 20003KT P6SM OVC040
     FM291600 19005KT P6SM -RA OVC035
     FM292100 30010KT P6SM -SHRA OVC040
     FM300200 30009KT P6SM BKN040=



000
FTUS46 KPQR 290310 AAA
TAFPDX
TAF AMD
KPDX 290310Z 2903/2924 31005KT P6SM OVC050
     FM290900 25004KT P6SM BKN050 BKN100
     FM291500 19005KT P6SM -RA BKN035 OVC050=



000
FTUS46 KPQR 282320
TAFTTD
TAF
KTTD 282320Z 2900/2924 VRB03KT P6SM SCT040 BKN060
     FM290900 VRB03KT P6SM BKN050 BKN100
     FM291500 19005KT P6SM -RA BKN035 OVC050=



000
FTUS46 KPQR 282320
TAFEUG
TAF
KEUG 282320Z 2900/2924 32005KT P6SM SCT035 BKN060
     FM290900 VRB03KT P6SM BKN060 BKN100
     FM291700 18006KT P6SM SCT030 BKN040 OVC080=



000
FTUS46 KPQR 282320
TAFPDX
TAF
KPDX 282320Z 2900/2924 31007KT P6SM SCT040 BKN070
     FM290900 25004KT P6SM BKN050 BKN100
     FM291500 19005KT P6SM -RA BKN035 OVC050=



000
FTUS46 KPQR 282320
TAFAST
TAF
KAST 282320Z 2900/2924 31010KT P6SM SCT030 BKN050
      TEMPO 2900/2902 BKN030
     FM290400 29006KT P6SM BKN035 OVC100
     FM291000 24006KT P6SM BKN020 OVC060
     FM291300 22006KT 3SM -RA BR SCT008 OVC013=



000
FTUS46 KPQR 282320
TAFHIO
TAF
KHIO 282320Z 2900/2924 32005KT P6SM SCT040 BKN070
     FM290800 VRB03KT P6SM BKN050 BKN100
     FM291400 19005KT P6SM -RA BKN035 OVC050=



000
FTUS46 KPQR 282320
TAFONP
TAF
KONP 282320Z 2900/2924 33011KT P6SM SCT030 BKN040
      TEMPO 2900/2902 BKN025
     FM290600 32005KT P6SM BKN030 BKN100
     FM291000 15005KT P6SM BKN020 OVC070
     FM291600 21007KT 2SM -RA BR BKN015 OVC025=



000
FTUS46 KPQR 282320
TAFSLE
TAF
KSLE 282320Z 2900/2924 30005KT P6SM SCT035 BKN060
     FM290800 VRB03KT P6SM BKN040 BKN080
     FM291600 18006KT P6SM -RA BKN030 OVC050=



000
FTUS46 KPQR 282102 AAA
TAFPDX
TAF AMD
KPDX 282102Z 2821/2918 VRB03KT P6SM SCT040 BKN060
     FM290200 32007G15KT P6SM SCT060
     FM290900 25004KT P6SM BKN050 BKN100
     FM291500 19005KT P6SM -RA BKN035 OVC050=



000
FTUS46 KPQR 282021 AAA
TAFAST
TAF AMD
KAST 282021Z 2820/2918 VRB03KT P6SM BKN030 BKN045
     FM282200 31010KT P6SM SCT030 BKN050
     FM290400 29006KT P6SM BKN035 OVC100
     FM291000 24006KT P6SM BKN020 OVC060
     FM291300 22006KT 3SM -RA BR SCT008 OVC013=



000
FTUS46 KPQR 282020 AAB
TAFONP
TAF AMD
KONP 282020Z 2820/2918 26006KT P6SM SCT007 BKN030
     FM282300 33011KT P6SM SCT030 BKN040
     FM290600 32005KT P6SM BKN030 BKN100
     FM291000 15005KT P6SM BKN020 OVC070
     FM291600 21007KT 2SM -RA BR BKN015 OVC025=



000
FTUS46 KPQR 281839 AAA
TAFONP
TAF AMD
KONP 281839Z 2819/2918 26006KT P6SM SCT007 SCT035 SCT045
     FM282000 33011KT P6SM SCT030 BKN040
     FM290600 32005KT P6SM BKN030 BKN100
     FM291000 15005KT P6SM BKN020 OVC070
     FM291600 21007KT 2SM -RA BR BKN015 OVC025=



000
FTUS46 KPQR 281839 AAA
TAFONP
TAF AMD
KONP 281839Z 2819/2918 26006KT P6SM SCT007 SCT035 SCT045
     FM282000 33011KT P6SM SCT030 BKN040
     FM290600 32005KT P6SM BKN030 BKN100
     FM291000 15005KT P6SM BKN020 OVC070
     FM291600 21007KT 2SM -RA BR BKN015 OVC025=



000
FTUS46 KPQR 281736
TAFEUG
TAF
KEUG 281736Z 2818/2918 VRB04KT P6SM BKN035 BKN060
     FM281900 35007KT P6SM SCT035 BKN060
     FM290100 31008G15KT P6SM SCT060
     FM290900 VRB03KT P6SM BKN060 BKN100
     FM291700 18006KT P6SM SCT030 BKN040 OVC080=



000
FTUS46 KPQR 281736
TAFPDX
TAF
KPDX 281736Z 2818/2918 31006KT P6SM BKN040 BKN060
     FM282200 32007G15KT P6SM SCT060
     FM290900 25004KT P6SM BKN050 BKN100
     FM291500 19005KT P6SM -RA BKN035 OVC050=



000
FTUS46 KPQR 281736
TAFHIO
TAF
KHIO 281736Z 2818/2918 VRB03KT P6SM BKN040 BKN060
     FM282200 32006KT P6SM SCT060
     FM290800 VRB03KT P6SM BKN050 BKN100
     FM291400 19005KT P6SM -RA BKN035 OVC050=



000
FTUS46 KPQR 281736
TAFSLE
TAF
KSLE 281736Z 2818/2918 VRB03KT P6SM BKN035 BKN060
     FM282000 33007KT P6SM SCT035 BKN060
     FM290300 29005KT P6SM SCT060
     FM290800 VRB03KT P6SM BKN040 BKN080
     FM291600 18006KT P6SM -RA BKN030 OVC050=



000
FTUS46 KPQR 281736
TAFAST
TAF
KAST 281736Z 2818/2918 VRB03KT P6SM BKN030 BKN045
     FM282100 31010KT P6SM SCT030 BKN050
     FM290400 29006KT P6SM BKN035 OVC100
     FM291000 24006KT P6SM BKN020 OVC060
     FM291300 22006KT 3SM -RA BR SCT008 OVC013=



000
FTUS46 KPQR 281736
TAFONP
TAF
KONP 281736Z 2818/2918 VRB03KT P6SM BKN025 OVC040
      TEMPO 2818/2820 4SM BR BKN013 OVC023
     FM282000 33011KT P6SM SCT030 BKN040
     FM290600 32005KT P6SM BKN030 BKN100
     FM291000 15005KT P6SM BKN020 OVC070
     FM291600 21007KT 2SM -RA BR BKN015 OVC025=



000
FTUS46 KPQR 281736
TAFTTD
TAF
KTTD 281736Z 2818/2918 31006KT P6SM BKN040 BKN060
     FM282200 32007KT P6SM SCT060
     FM290900 VRB03KT P6SM BKN050 BKN100
     FM291500 19005KT P6SM -RA BKN035 OVC050=



000
FTUS46 KPQR 281736
TAFSLE
TAF
KSLE 281736Z 2818/2918 VRB03KT P6SM BKN035 BKN060
     FM282000 33007KT P6SM SCT035 BKN060
     FM290300 29005KT P6SM SCT060
     FM290800 VRB03KT P6SM BKN040 BKN080
     FM291600 18006KT P6SM -RA BKN030 OVC050=



000
FTUS46 KPQR 281736
TAFPDX
TAF
KPDX 281736Z 2818/2918 31006KT P6SM BKN040 BKN060
     FM282200 32007G15KT P6SM SCT060
     FM290900 25004KT P6SM BKN050 BKN100
     FM291500 19005KT P6SM -RA BKN035 OVC050=



000
FTUS46 KPQR 281736
TAFONP
TAF
KONP 281736Z 2818/2918 VRB03KT P6SM BKN025 OVC040
      TEMPO 2818/2820 4SM BR BKN013 OVC023
     FM282000 33011KT P6SM SCT030 BKN040
     FM290600 32005KT P6SM BKN030 BKN100
     FM291000 15005KT P6SM BKN020 OVC070
     FM291600 21007KT 2SM -RA BR BKN015 OVC025=



000
FTUS46 KPQR 281736
TAFEUG
TAF
KEUG 281736Z 2818/2918 VRB04KT P6SM BKN035 BKN060
     FM281900 35007KT P6SM SCT035 BKN060
     FM290100 31008G15KT P6SM SCT060
     FM290900 VRB03KT P6SM BKN060 BKN100
     FM291700 18006KT P6SM SCT030 BKN040 OVC080=



000
FTUS46 KPQR 281736
TAFTTD
TAF
KTTD 281736Z 2818/2918 31006KT P6SM BKN040 BKN060
     FM282200 32007KT P6SM SCT060
     FM290900 VRB03KT P6SM BKN050 BKN100
     FM291500 19005KT P6SM -RA BKN035 OVC050=



000
FTUS46 KPQR 281736
TAFHIO
TAF
KHIO 281736Z 2818/2918 VRB03KT P6SM BKN040 BKN060
     FM282200 32006KT P6SM SCT060
     FM290800 VRB03KT P6SM BKN050 BKN100
     FM291400 19005KT P6SM -RA BKN035 OVC050=



000
FTUS46 KPQR 281736
TAFAST
TAF
KAST 281736Z 2818/2918 VRB03KT P6SM BKN030 BKN045
     FM282100 31010KT P6SM SCT030 BKN050
     FM290400 29006KT P6SM BKN035 OVC100
     FM291000 24006KT P6SM BKN020 OVC060
     FM291300 22006KT 3SM -RA BR SCT008 OVC013=



000
FTUS46 KPQR 281542 AAB
TAFTTD
TAF AMD
KTTD 281542Z 2816/2912 29004KT P6SM BKN035 OVC060
     FM281900 29004KT P6SM SCT035 BKN060
     FM290200 29005KT P6SM SCT060
     FM290800 VRB02KT P6SM BKN100=



000
FTUS46 KPQR 281542 AAB
TAFTTD
TAF AMD
KTTD 281542Z 2816/2912 29004KT P6SM BKN035 OVC060
     FM281900 29004KT P6SM SCT035 BKN060
     FM290200 29005KT P6SM SCT060
     FM290800 VRB02KT P6SM BKN100=



000
FTUS46 KPQR 281504 AAB
TAFPDX
TAF AMD
KPDX 281504Z 2815/2912 32003KT P6SM BKN035 BKN060
     FM281800 31006KT P6SM SCT035 BKN060
     FM282200 32007KT P6SM SCT060
     FM290700 25004KT P6SM BKN100=



000
FTUS46 KPQR 281501 AAB
TAFAST
TAF AMD
KAST 281501Z 2815/2912 VRB03KT P6SM BKN025 BKN045
     FM282100 31010KT P6SM SCT030 BKN050
     FM290400 29006KT P6SM BKN035 OVC100
     FM291000 24006KT P6SM BKN020 OVC060=



000
FTUS46 KPQR 281459 AAA
TAFONP
TAF AMD
KONP 281459Z 2815/2912 VRB03KT P6SM BKN025 OVC040
      TEMPO 2815/2818 3SM BR BKN011 OVC023
     FM282000 33011KT P6SM SCT030 BKN040
     FM290600 32005KT P6SM BKN030 BKN100
     FM291000 25005KT P6SM BKN020 OVC070=



000
FTUS46 KPQR 281459 AAA
TAFONP
TAF AMD
KONP 281459Z 2815/2912 VRB03KT P6SM BKN025 OVC040
      TEMPO 2815/2818 3SM BR BKN011 OVC023
     FM282000 33011KT P6SM SCT030 BKN040
     FM290600 32005KT P6SM BKN030 BKN100
     FM291000 25005KT P6SM BKN020 OVC070=



000
FTUS46 KPQR 281325 AAA
TAFPDX
TAF AMD
KPDX 281325Z 2813/2912 32003KT P6SM BKN035 BKN060
     FM281800 31006KT P6SM SCT035 BKN060
     FM282200 32007KT P6SM SCT060
     FM290700 25004KT P6SM BKN100=



000
FTUS46 KPQR 281324 AAA
TAFAST
TAF AMD
KAST 281324Z 2813/2912 VRB03KT P6SM SCT025 BKN045
     FM282100 31010KT P6SM SCT030 BKN050
     FM290400 29006KT P6SM BKN035 OVC100
     FM291000 24006KT P6SM BKN020 OVC060=



000
FTUS46 KPQR 281200 CCB
TAFPDX
TAF COR
KPDX 281200Z 2812/2912 32003KT P6SM BKN035 OVC060
      TEMPO 2815/2818 SCT035 BKN060
     FM281800 32007KT P6SM SCT035 BKN060
     FM290200 30005KT P6SM SCT060
     FM290800 25004KT P6SM BKN100=



000
FTUS46 KPQR 281200 CCB
TAFPDX
TAF COR
KPDX 281200Z 2812/2912 32003KT P6SM BKN035 OVC060
      TEMPO 2815/2818 SCT035 BKN060
     FM281800 32007KT P6SM SCT035 BKN060
     FM290200 30005KT P6SM SCT060
     FM290800 25004KT P6SM BKN100=



000
FTUS46 KPQR 281159 AAA
TAFTTD
TAF AMD
KTTD 281159Z 2812/2912 29004KT P6SM BKN030 OVC060
     FM281900 29004KT P6SM SCT035 BKN060
     FM290200 29005KT P6SM SCT060
     FM290800 VRB02KT P6SM BKN100=



000
FTUS46 KPQR 281158 CCA
TAFPDX
TAF COR
KPDX 281158Z 2812/2912 32003KT P6SM BKN030 OVC060
      TEMPO 2816/2818 SCT035 BKN060
     FM281800 32007KT P6SM SCT035 BKN050
     FM290200 30005KT P6SM SCT060
     FM290800 25004KT P6SM BKN100=



000
FTUS46 KPQR 281158 CCA
TAFPDX
TAF COR
KPDX 281158Z 2812/2912 32003KT P6SM BKN030 OVC060
      TEMPO 2816/2818 SCT035 BKN060
     FM281800 32007KT P6SM SCT035 BKN050
     FM290200 30005KT P6SM SCT060
     FM290800 25004KT P6SM BKN100=



000
FTUS46 KPQR 281134
TAFPDX
TAF
KPDX 281134Z 2812/2912 32003KT P6SM SCT030 BKN060
      TEMPO 2815/2818 BKN030 BKN060
     FM281800 32007KT P6SM FEW035 BKN050
     FM290200 30005KT P6SM SCT060
     FM290800 25004KT P6SM BKN100=



000
FTUS46 KPQR 281134
TAFTTD
TAF
KTTD 281134Z 2812/2912 29004KT P6SM FEW035 BKN060
      TEMPO 2815/2818 BKN035 BKN060
     FM290200 29005KT P6SM SCT060
     FM290800 VRB02KT P6SM BKN100=



000
FTUS46 KPQR 281134
TAFONP
TAF
KONP 281134Z 2812/2912 30006KT P6SM BKN025 OVC040
     FM282000 33011KT P6SM SCT030 BKN040
     FM290600 32005KT P6SM BKN030 BKN100
     FM291000 25005KT P6SM BKN020 OVC070=



000
FTUS46 KPQR 281134
TAFEUG
TAF
KEUG 281134Z 2812/2912 VRB04KT P6SM BKN035 BKN060
     FM281900 35007KT P6SM SCT035 BKN060
     FM290200 35006KT P6SM SCT060
     FM290800 VRB03KT P6SM BKN100=



000
FTUS46 KPQR 281134
TAFAST
TAF
KAST 281134Z 2812/2912 VRB03KT P6SM BKN025 OVC040
     FM282100 31010KT P6SM SCT030 BKN040
     FM290400 29006KT P6SM BKN035 OVC100
     FM291000 24006KT P6SM BKN020 OVC060=



000
FTUS46 KPQR 281134
TAFHIO
TAF
KHIO 281134Z 2812/2912 29004KT P6SM SCT035 BKN060
     FM282300 30005KT P6SM SCT060
     FM290800 VRB03KT P6SM BKN100=



000
FTUS46 KPQR 281134
TAFSLE
TAF
KSLE 281134Z 2812/2912 29004KT P6SM BKN035 BKN060
     FM281800 33007KT P6SM SCT035 BKN060
     FM290300 29005KT P6SM SCT060
     FM290800 VRB03KT P6SM BKN100=



000
FTUS46 KPQR 280916 AAA
TAFPDX
TAF AMD
KPDX 280916Z 2809/2906 32003KT P6SM FEW030 BKN050
      TEMPO 2814/2818 BKN030 BKN050
     FM281800 32007KT P6SM FEW030 BKN050
     FM290200 32006KT P6SM SCT050=



000
FTUS46 KPQR 280520
TAFPDX
TAF
KPDX 280520Z 2806/2906 29004KT P6SM BKN050
     FM281300 VRB03KT P6SM SCT020 OVC030
     FM281800 30004KT P6SM BKN040=



000
FTUS46 KPQR 280520
TAFHIO
TAF
KHIO 280520Z 2806/2906 VRB03KT P6SM BKN050
     FM281400 VRB03KT P6SM SCT020 OVC030
     FM281900 31004KT P6SM BKN040=



000
FTUS46 KPQR 280520
TAFTTD
TAF
KTTD 280520Z 2806/2906 VRB03KT P6SM BKN050
     FM281200 VRB02KT P6SM SCT015 OVC030
     FM281900 27003KT P6SM BKN040=



000
FTUS46 KPQR 280520
TAFAST
TAF
KAST 280520Z 2806/2906 27004KT P6SM SCT030
     FM280800 VRB03KT P6SM BKN025
     FM281900 31007KT P6SM SCT030=



000
FTUS46 KPQR 280520
TAFONP
TAF
KONP 280520Z 2806/2906 36005KT P6SM BKN020
     FM280900 02003KT P6SM OVC020
     FM281900 32008KT P6SM SCT025=



000
FTUS46 KPQR 280520
TAFSLE
TAF
KSLE 280520Z 2806/2906 VRB03KT P6SM BKN050
     FM281200 VRB02KT P6SM SCT015 OVC030
     FM281800 30004KT P6SM BKN040=



000
FTUS46 KPQR 280520
TAFEUG
TAF
KEUG 280520Z 2806/2906 33005KT P6SM BKN050
     FM280900 VRB03KT P6SM OVC025
     FM281800 31005KT P6SM BKN040=



000
FTUS46 KPQR 280309 AAA
TAFPDX
TAF AMD
KPDX 280309Z 2803/2824 29004KT P6SM SCT050
     FM281400 VRB03KT P6SM SCT020 OVC030
     FM281800 30004KT P6SM SCT030=



000
FTUS46 KPQR 272320
TAFPDX
TAF
KPDX 272320Z 2800/2824 29004KT P6SM SCT030 BKN050
     FM280400 31004KT P6SM BKN050
     FM281300 VRB03KT P6SM SCT020 OVC030
     FM281800 30004KT P6SM SCT030=



000
FTUS46 KPQR 272320
TAFTTD
TAF
KTTD 272320Z 2800/2824 VRB03KT P6SM OVC050
     FM280400 VRB03KT P6SM BKN050
     FM281100 VRB02KT P6SM SCT015 OVC030
     FM281800 27003KT P6SM SCT030=



000
FTUS46 KPQR 272320
TAFHIO
TAF
KHIO 272320Z 2800/2824 30004KT P6SM OVC050
     FM280400 VRB03KT P6SM BKN050
     FM281400 VRB03KT P6SM SCT020 OVC030
     FM281900 30003KT P6SM SCT030=



000
FTUS46 KPQR 272320
TAFAST
TAF
KAST 272320Z 2800/2824 31009KT P6SM SCT035
     FM281000 27003KT P6SM SCT020 BKN035
     FM281400 VRB02KT P6SM OVC025
     FM282100 31007KT P6SM SCT030=



000
FTUS46 KPQR 272320
TAFONP
TAF
KONP 272320Z 2800/2824 31005KT P6SM SCT015 SCT035
     FM281200 02003KT P6SM BKN020
     FM281900 32008KT P6SM SCT025=



000
FTUS46 KPQR 272320
TAFEUG
TAF
KEUG 272320Z 2800/2824 02005KT P6SM VCSH SCT030 OVC050
     FM280500 VRB04KT P6SM BKN050
     FM280900 VRB03KT P6SM OVC025
     FM281800 31005KT P6SM SCT030=



000
FTUS46 KPQR 272320
TAFSLE
TAF
KSLE 272320Z 2800/2824 VRB03KT P6SM OVC050
     FM280400 VRB03KT P6SM BKN050
     FM281200 VRB02KT P6SM SCT015 OVC030
     FM281800 30004KT P6SM SCT030=



000
FTUS46 KPQR 272053 AAA
TAFONP
TAF AMD
KONP 272053Z 2721/2818 32006KT P6SM BKN035 OVC050
     FM280300 31005KT P6SM SCT025 OVC050
     FM280800 24003KT P6SM BKN020 BKN050=



000
FTUS46 KPQR 272052 AAA
TAFPDX
TAF AMD
KPDX 272052Z 2721/2818 25005KT P6SM SCT030 OVC045
     FM280000 30004KT P6SM SCT030 BKN050
     FM281300 VRB03KT P6SM SCT020 OVC030=



000
FTUS46 KPQR 271723
TAFPDX
TAF
KPDX 271723Z 2718/2818 32004KT P6SM VCSH BKN045
     FM271900 25005KT P6SM SCT030 OVC050
     FM280000 30004KT P6SM SCT030 OVC050
     FM281300 VRB03KT P6SM SCT020 OVC030=



000
FTUS46 KPQR 271723
TAFAST
TAF
KAST 271723Z 2718/2818 VRB03KT P6SM VCSH SCT025 OVC040
     FM272000 23007KT P6SM VCSH SCT035 OVC050
     FM280300 29009KT P6SM BKN050
     FM281000 24003KT P6SM SCT020 BKN050
     FM281400 VRB02KT P6SM OVC025=



000
FTUS46 KPQR 271723
TAFHIO
TAF
KHIO 271723Z 2718/2818 VRB03KT P6SM VCSH BKN015 OVC020
     FM272100 VRB03KT P6SM VCSH SCT020 BKN035 OVC060
     FM280000 30004KT P6SM OVC050=



000
FTUS46 KPQR 271723
TAFSLE
TAF
KSLE 271723Z 2718/2818 25005KT P6SM -SHRA SCT015 BKN025 OVC050
     FM280000 30004KT P6SM SCT030 OVC050
     FM281200 VRB02KT P6SM SCT015 OVC030=



000
FTUS46 KPQR 271723
TAFONP
TAF
KONP 271723Z 2718/2818 09008KT 5SM -SHRA BR SCT003 BKN008 OVC020
     FM272200 32011KT 6SM -SHRA BR BKN025 OVC040
     FM280300 31005KT P6SM SCT025 OVC050
     FM280800 24003KT P6SM BKN020 BKN050=



000
FTUS46 KPQR 271723
TAFTTD
TAF
KTTD 271723Z 2718/2818 27004KT P6SM VCSH SCT020 OVC045
     FM280000 VRB03KT P6SM SCT030 OVC050
     FM281100 VRB02KT P6SM SCT015 OVC030=



000
FTUS46 KPQR 271723
TAFEUG
TAF
KEUG 271723Z 2718/2818 VRB03KT P6SM -SHRA SCT010 OVC015
     FM272000 25004KT P6SM -SHRA SCT020 OVC025
     FM272300 26006KT P6SM VCSH SCT035 OVC050
     FM281000 VRB03KT P6SM BKN025 OVC050=



    US Dept of Commerce
    National Oceanic and Atmospheric Administration
    National Weather Service
    1325 East West Highway
    Silver Spring, MD 20910
    Page Author: NWS Internet Services Team
Disclaimer
Information Quality
Credits
Glossary
Privacy Policy
Freedom of Information Act (FOIA)
About Us
Career Opportunities